This is the latest recevied weather packets stored in our database for station/object OH6LSL. If no packets are shown the sender has not sent any weather packets the latest 10 day(s).
| Time | Temp. | Humidity | Pressure | Rain* | Wind** | Luminosity | Snow |
|---|---|---|---|---|---|---|---|
| 1777589081 | 5° C | 49% | 1016.2 hPa | 0 mm | - | 0 W/m² | - |
| 1777586081 | 5° C | 54% | 1016.1 hPa | 0 mm | - | 0 W/m² | - |
| 1777583082 | 5.56° C | 61% | 1016.1 hPa | 0 mm | - | 0 W/m² | - |
| 1777581876 | 6.11° C | 64% | 1016.2 hPa | 0 mm | - | 0 W/m² | - |
| 1777578902 | 6.67° C | 66% | 1016.3 hPa | 0 mm | - | 0 W/m² | - |
| 1777574709 | 8.89° C | 62% | 1016.4 hPa | 0 mm | - | 5 W/m² | - |
| 1777569885 | 11.67° C | 55% | 1016.3 hPa | 0 mm | - | 18 W/m² | - |
| 1777567506 | 12.78° C | 52% | 1016.3 hPa | 0 mm | - | 23 W/m² | - |
| 1777566286 | 13.33° C | 53% | 1016.3 hPa | 0 mm | - | 26 W/m² | - |
| 1777564489 | 13.89° C | 49% | 1016.4 hPa | 0 mm | - | 44 W/m² | - |
| 1777560889 | 13.89° C | 48% | 1016.9 hPa | 0 mm | - | 148 W/m² | - |
| 1777557887 | 14.44° C | 47% | 1017.2 hPa | 0 mm | - | 227 W/m² | - |
| 1777556684 | 14.44° C | 47% | 1017.2 hPa | 0 mm | - | 384 W/m² | - |
| 1777555486 | 14.44° C | 47% | 1017.3 hPa | 0 mm | - | 201 W/m² | - |
| 1777552477 | 13.33° C | 48% | 1017.4 hPa | 0 mm | - | 227 W/m² | - |
| 1777548875 | 13.33° C | 49% | 1017.4 hPa | 0 mm | - | 297 W/m² | - |
| 1777544074 | 12.78° C | 48% | 1017.3 hPa | 0 mm | - | 399 W/m² | - |
| 1777542873 | 12.78° C | 51% | 1017.4 hPa | 0 mm | - | 449 W/m² | - |
| 1777542273 | 12.78° C | 50% | 1017.4 hPa | 0 mm | - | 370 W/m² | - |
| 1777533288 | 9.44° C | 58% | 1016.8 hPa | 0 mm | - | 165 W/m² | - |
| 1777530885 | 10° C | 52% | 1016.8 hPa | 0 mm | - | 116 W/m² | - |
| 1777530286 | 9.44° C | 51% | 1016.7 hPa | 0 mm | - | 144 W/m² | - |
| 1777529072 | 8.89° C | 49% | 1016.5 hPa | 0 mm | - | 56 W/m² | - |
| 1777526100 | 6.67° C | 44% | 1016.2 hPa | 0 mm | - | 53 W/m² | - |
| 1777523676 | 6.11° C | 35% | 1015.9 hPa | 0 mm | - | 37 W/m² | - |
* Rain latest hour (hover to see other rain measurements)
** Current wind speed in m/s (hover to see current wind gust speed)